Time,TemperatureF,DewpointF,PressureIn,WindDirection,WindDirectionDegrees,WindSpeedMPH,WindSpeedGustMPH,Humidity,HourlyPrecipIn,Conditions,Clouds,dailyrainin,SoftwareType,DateUTC
2013-07-09 07:43:00,71.0,69.0,30.01,ENE,76,1.0,7.0,95,0.00,,,0.54,,2013-07-09 12:43:00,
2013-07-09 08:11:00,72.0,70.0,30.03,ENE,73,3.0,7.0,94,0.00,,,0.54,,2013-07-09 13:11:00,
2013-07-09 08:43:00,74.0,72.0,30.04,East,86,2.0,10.0,93,0.00,,,0.54,,2013-07-09 13:43:00,
2013-07-09 08:53:00,74.0,72.0,30.04,East,86,2.0,10.0,93,0.00,,,0.54,,2013-07-09 13:53:00,
2013-07-09 09:01:00,75.0,73.0,30.05,East,93,0.0,7.0,92,0.00,,,0.54,,2013-07-09 14:01:00,
2013-07-09 09:11:00,75.0,72.0,30.05,East,83,1.0,8.0,91,0.00,,,0.54,,2013-07-09 14:11:00,
2013-07-09 09:34:00,76.0,73.0,30.05,East,83,0.0,10.0,89,0.00,,,0.54,,2013-07-09 14:34:00,
2013-07-09 09:43:00,76.0,72.0,30.05,East,86,5.0,9.0,87,0.00,,,0.54,,2013-07-09 14:43:00,
2013-07-09 09:53:00,76.0,72.0,30.05,East,86,5.0,9.0,87,0.00,,,0.54,,2013-07-09 14:53:00,
2013-07-09 10:02:00,77.0,72.0,30.06,ENE,73,7.0,12.0,85,0.00,,,0.54,,2013-07-09 15:02:00,
2013-07-09 10:22:00,78.0,72.0,30.06,NE,56,2.0,11.0,83,0.00,,,0.54,,2013-07-09 15:22:00,
2013-07-09 10:33:00,78.0,72.0,30.06,ESE,116,5.0,12.0,82,0.00,,,0.54,,2013-07-09 15:33:00,
2013-07-09 11:02:00,79.0,73.0,30.07,ESE,107,5.0,11.0,81,0.00,,,0.54,,2013-07-09 16:02:00,
2013-07-09 11:22:00,79.0,72.0,30.07,ESE,102,5.0,12.0,79,0.00,,,0.54,,2013-07-09 16:22:00,
2013-07-09 11:34:00,79.0,71.0,30.07,ESE,106,6.0,14.0,77,0.00,,,0.54,,2013-07-09 16:34:00,
2013-07-09 11:43:00,80.0,72.0,30.07,ENE,69,7.0,12.0,76,0.00,,,0.54,,2013-07-09 16:43:00,
2013-07-09 11:52:00,80.0,72.0,30.07,ENE,69,7.0,12.0,76,0.00,,,0.54,,2013-07-09 16:52:00,
2013-07-09 12:02:00,80.0,72.0,30.07,ENE,69,7.0,12.0,76,0.00,,,0.54,,2013-07-09 17:02:00,
2013-07-09 12:22:00,81.0,72.0,30.07,ENE,74,6.0,12.0,75,0.00,,,0.54,,2013-07-09 17:22:00,
2013-07-09 12:35:00,82.0,72.0,30.07,East,88,3.0,15.0,73,0.00,,,0.54,,2013-07-09 17:35:00,
2013-07-09 13:02:00,81.0,72.0,30.06,East,87,8.0,13.0,74,0.00,,,0.54,,2013-07-09 18:02:00,
2013-07-09 13:11:00,81.0,72.0,30.06,ESE,106,8.0,13.0,73,0.00,,,0.54,,2013-07-09 18:11:00,
2013-07-09 13:32:00,82.0,72.0,30.06,East,87,6.0,13.0,73,0.00,,,0.43,,2013-07-09 18:32:00,
2013-07-09 13:43:00,82.0,72.0,30.06,NE,52,5.0,14.0,71,0.00,,,0.43,,2013-07-09 18:43:00,
2013-07-09 13:52:00,82.0,72.0,30.06,NE,52,5.0,14.0,71,0.00,,,0.43,,2013-07-09 18:52:00,
2013-07-09 14:01:00,83.0,72.0,30.06,ENE,69,5.0,13.0,70,0.00,,,0.43,,2013-07-09 19:01:00,
2013-07-09 14:22:00,82.0,69.0,30.05,East,82,9.0,14.0,66,0.00,,,0.43,,2013-07-09 19:22:00,
2013-07-09 14:33:00,83.0,72.0,30.04,East,86,8.0,13.0,70,0.00,,,0.43,,2013-07-09 19:33:00,
2013-07-09 14:42:00,82.0,72.0,30.04,ESE,109,7.0,11.0,71,0.00,,,0.43,,2013-07-09 19:42:00,
2013-07-09 14:52:00,82.0,72.0,30.04,ESE,109,7.0,11.0,71,0.00,,,0.43,,2013-07-09 19:52:00,
2013-07-09 15:02:00,83.0,72.0,30.04,ESE,108,9.0,13.0,70,0.00,,,0.43,,2013-07-09 20:02:00,
2013-07-09 15:22:00,83.0,72.0,30.03,ESE,103,7.0,13.0,69,0.00,,,0.43,,2013-07-09 20:22:00,
2013-07-09 15:32:00,84.0,73.0,30.03,ESE,117,5.0,13.0,69,0.00,,,0.17,,2013-07-09 20:32:00,
2013-07-09 15:43:00,83.0,71.0,30.03,East,86,6.0,14.0,68,0.00,,,0.17,,2013-07-09 20:43:00,
2013-07-09 15:52:00,83.0,71.0,30.03,East,86,6.0,14.0,68,0.00,,,0.17,,2013-07-09 20:52:00,
2013-07-09 16:01:00,83.0,72.0,30.03,ENE,68,2.0,13.0,69,0.00,,,0.17,,2013-07-09 21:01:00,
2013-07-09 16:11:00,83.0,73.0,30.02,ENE,57,4.0,11.0,71,0.00,,,0.17,,2013-07-09 21:11:00,
2013-07-09 16:32:00,83.0,73.0,30.01,ENE,63,0.0,12.0,72,0.00,,,0.17,,2013-07-09 21:32:00,
2013-07-09 16:42:00,82.0,71.0,30.01,ESE,109,5.0,10.0,70,0.00,,,0.17,,2013-07-09 21:42:00,
2013-07-09 16:52:00,82.0,71.0,30.01,ESE,109,5.0,10.0,70,0.00,,,0.17,,2013-07-09 21:52:00,
2013-07-09 17:01:00,82.0,72.0,30.01,East,84,4.0,14.0,71,0.00,,,0.17,,2013-07-09 22:01:00,
2013-07-09 17:11:00,82.0,72.0,30.00,East,99,3.0,11.0,71,0.00,,,0.17,,2013-07-09 22:11:00,
2013-07-09 17:33:00,82.0,72.0,30.00,ENE,76,4.0,12.0,71,0.00,,,0.17,,2013-07-09 22:33:00,
2013-07-09 17:42:00,82.0,72.0,30.00,ENE,76,6.0,13.0,71,0.00,,,0.17,,2013-07-09 22:42:00,
2013-07-09 17:53:00,82.0,72.0,30.00,ENE,76,6.0,13.0,71,0.00,,,0.17,,2013-07-09 22:53:00,
2013-07-09 18:02:00,82.0,72.0,30.00,East,80,6.0,11.0,73,0.00,,,0.17,,2013-07-09 23:02:00,
2013-07-09 18:12:00,81.0,72.0,30.00,East,96,3.0,12.0,75,0.00,,,0.17,,2013-07-09 23:12:00,
2013-07-09 18:33:00,81.0,73.0,30.00,East,86,4.0,12.0,77,0.00,,,0.17,,2013-07-09 23:33:00,
2013-07-09 18:43:00,80.0,72.0,30.00,East,83,4.0,11.0,77,0.00,,,0.17,,2013-07-09 23:43:00,
2013-07-09 18:53:00,80.0,72.0,30.00,ESE,109,7.0,11.0,78,0.00,,,0.17,,2013-07-09 23:53:00,
2013-07-09 19:01:00,80.0,72.0,30.00,ESE,109,7.0,11.0,78,0.00,,,0.17,,2013-07-10 00:01:00,
2013-07-09 19:11:00,80.0,73.0,30.01,ESE,109,0.0,8.0,80,0.00,,,0.17,,2013-07-10 00:11:00,
2013-07-09 19:22:00,80.0,73.0,30.01,ESE,109,0.0,8.0,80,0.00,,,0.17,,2013-07-10 00:22:00,
2013-07-09 19:33:00,79.0,73.0,30.02,East,82,0.0,7.0,81,0.00,,,0.17,,2013-07-10 00:33:00,
2013-07-09 19:42:00,79.0,73.0,30.03,ESE,103,0.0,8.0,81,0.00,,,0.17,,2013-07-10 00:42:00,
2013-07-09 19:52:00,78.0,72.0,30.03,ENE,59,0.0,0.0,81,0.00,,,0.17,,2013-07-10 00:52:00,
2013-07-09 20:01:00,78.0,72.0,30.03,ENE,59,0.0,0.0,81,0.00,,,0.17,,2013-07-10 01:01:00,
2013-07-09 20:11:00,78.0,72.0,30.03,ENE,59,0.0,0.0,81,0.00,,,0.17,,2013-07-10 01:11:00,
2013-07-09 20:22:00,78.0,72.0,30.03,ENE,59,0.0,0.0,81,0.00,,,0.17,,2013-07-10 01:22:00,
2013-07-09 20:33:00,78.0,72.0,30.03,East,84,1.0,7.0,82,0.00,,,0.17,,2013-07-10 01:33:00,
2013-07-09 20:43:00,78.0,72.0,30.03,ENE,76,0.0,8.0,83,0.00,,,0.17,,2013-07-10 01:43:00,
2013-07-09 20:53:00,78.0,72.0,30.03,ENE,76,0.0,8.0,83,0.00,,,0.17,,2013-07-10 01:53:00,
2013-07-09 21:02:00,78.0,72.0,30.02,East,94,1.0,6.0,83,0.00,,,0.17,,2013-07-10 02:02:00,
2013-07-09 21:11:00,77.0,72.0,30.03,East,82,1.0,5.0,84,0.00,,,0.17,,2013-07-10 02:11:00,
2013-07-09 21:34:00,77.0,72.0,30.03,East,98,0.0,7.0,85,0.00,,,0.17,,2013-07-10 02:34:00,
2013-07-09 22:01:00,77.0,72.0,30.03,East,79,0.0,7.0,86,0.00,,,0.17,,2013-07-10 03:01:00,
2013-07-09 22:12:00,76.0,72.0,30.04,East,100,2.0,9.0,86,0.00,,,0.17,,2013-07-10 03:12:00,
2013-07-09 22:32:00,76.0,72.0,30.04,East,80,3.0,8.0,86,0.00,,,0.06,,2013-07-10 03:32:00,
2013-07-09 22:43:00,76.0,72.0,30.04,East,80,3.0,8.0,86,0.00,,,0.06,,2013-07-10 03:43:00,
2013-07-09 22:52:00,76.0,72.0,30.04,East,80,3.0,8.0,86,0.00,,,0.06,,2013-07-10 03:52:00,
2013-07-09 23:01:00,76.0,72.0,30.04,East,80,3.0,8.0,86,0.00,,,0.06,,2013-07-10 04:01:00,